Molengracht — PCJG — position and weather

sailwx.info

Track history (hours):
 
Tides and Currents Weather Stations Pressure Air Temp Water Temp Dewpoint Dewpoint Depression Visibility Wind Speed Wind Dir Waves Ship Positions

Molengracht

Last reported at 2016-Sep-22 04:33 UTC. Time now 2016-Sep-30 15:05 UTC.
Position N 09°01' W 079°37'.
Warning: this ship's position is 8 days out of date.

Length 143 m; draft 7.7 m.

Type: Cargo ship. MMSI: 246770000.

Date/timePositionNaut miles runAvg speedWind from/ knotsBaromVisibWave heightAir tempDewpointWater temp
2016-Sep-22 04:33N 09°01' W 079°37'8 7.6
2016-Sep-22 03:33N 09°07' W 079°42'16 5.5
2016-Sep-22 00:33N 09°17' W 079°55'5 5.4
2016-Sep-21 23:33N 09°22' W 079°55'0 0.2
2016-Sep-21 22:33N 09°23' W 079°55'0 0.0
2016-Sep-21 19:31N 09°23' W 079°55'0 0.0
2016-Sep-21 16:33N 09°22' W 079°55'0 0.0
2016-Sep-21 09:31N 09°23' W 079°55'0 0.0
2016-Sep-21 08:31N 09°22' W 079°55'0 0.0
2016-Sep-21 05:33N 09°23' W 079°55'0 0.0
2016-Sep-21 03:33N 09°23' W 079°55'0 0.0
2016-Sep-21 02:33N 09°22' W 079°55'23 2.5
2016-Sep-20 17:33N 09°44' W 079°47'  
2016-Sep-12 14:28N 26°46' W 080°03'11 8.0
2016-Sep-12 13:04N 26°52' W 079°52'  
Track history (hours):
 
Tides and Currents Weather Stations Pressure Air Temp Water Temp Dewpoint Dewpoint Depression Visibility Wind Speed Wind Dir Waves Ship Positions

Molengracht

Last reported at 2016-Sep-22 04:33 UTC. Time now 2016-Sep-30 15:05 UTC.
Position N 09°01' W 079°37'.
Warning: this ship's position is 8 days out of date.

Length 143 m; draft 7.7 m.

Type: Cargo ship. MMSI: 246770000.

Date/timePositionNaut miles runAvg speedWind from/ knotsBaromVisibWave heightAir tempDewpointWater temp
2016-Sep-22 04:33N 09°01' W 079°37'8 7.6
2016-Sep-22 03:33N 09°07' W 079°42'16 5.5
2016-Sep-22 00:33N 09°17' W 079°55'5 5.4
2016-Sep-21 23:33N 09°22' W 079°55'0 0.2
2016-Sep-21 22:33N 09°23' W 079°55'0 0.0
2016-Sep-21 19:31N 09°23' W 079°55'0 0.0
2016-Sep-21 16:33N 09°22' W 079°55'0 0.0
2016-Sep-21 09:31N 09°23' W 079°55'0 0.0
2016-Sep-21 08:31N 09°22' W 079°55'0 0.0
2016-Sep-21 05:33N 09°23' W 079°55'0 0.0
2016-Sep-21 03:33N 09°23' W 079°55'0 0.0
2016-Sep-21 02:33N 09°22' W 079°55'23 2.5
2016-Sep-20 17:33N 09°44' W 079°47'  
2016-Sep-12 14:28N 26°46' W 080°03'11 8.0
2016-Sep-12 13:04N 26°52' W 079°52'  

Dump ship's entire track history